sensor_id;sensor_type;location;lat;lon;timestamp;pressure;altitude;pressure_sealevel;temperature;humidity
35489;BME280;21602;55.670;37.578;2023-04-10T00:00:32;100108.25;;;10.66;45.93
35489;BME280;21602;55.670;37.578;2023-04-10T00:03:01;100105.56;;;10.66;46.00
35489;BME280;21602;55.670;37.578;2023-04-10T00:05:27;100102.91;;;10.66;45.99
35489;BME280;21602;55.670;37.578;2023-04-10T00:07:53;100108.00;;;10.68;46.10
35489;BME280;21602;55.670;37.578;2023-04-10T00:10:19;100105.53;;;10.73;45.91
35489;BME280;21602;55.670;37.578;2023-04-10T00:12:45;100102.19;;;10.77;46.01
35489;BME280;21602;55.670;37.578;2023-04-10T00:15:11;100105.06;;;10.83;46.09
35489;BME280;21602;55.670;37.578;2023-04-10T00:17:37;100100.31;;;10.85;45.61
35489;BME280;21602;55.670;37.578;2023-04-10T00:20:04;100103.56;;;10.87;45.67
35489;BME280;21602;55.670;37.578;2023-04-10T00:22:30;100106.84;;;10.89;45.59
35489;BME280;21602;55.670;37.578;2023-04-10T00:24:56;100099.88;;;10.88;45.57
35489;BME280;21602;55.670;37.578;2023-04-10T00:27:21;100102.56;;;10.88;45.72
35489;BME280;21602;55.670;37.578;2023-04-10T00:29:47;100100.91;;;10.87;45.46
35489;BME280;21602;55.670;37.578;2023-04-10T00:32:13;100100.91;;;10.87;45.56
35489;BME280;21602;55.670;37.578;2023-04-10T00:34:39;100105.66;;;10.85;45.91
35489;BME280;21602;55.670;37.578;2023-04-10T00:37:05;100104.03;;;10.84;45.65
35489;BME280;21602;55.670;37.578;2023-04-10T00:39:30;100105.06;;;10.83;45.75
35489;BME280;21602;55.670;37.578;2023-04-10T00:41:56;100120.06;;;10.84;45.67
35489;BME280;21602;55.670;37.578;2023-04-10T00:44:22;100113.88;;;10.83;45.93
35489;BME280;21602;55.670;37.578;2023-04-10T00:46:48;100117.53;;;10.89;46.10
35489;BME280;21602;55.670;37.578;2023-04-10T00:49:14;100119.34;;;10.95;45.49
35489;BME280;21602;55.670;37.578;2023-04-10T00:51:40;100124.25;;;10.98;45.56
35489;BME280;21602;55.670;37.578;2023-04-10T00:54:06;100121.59;;;10.98;45.36
35489;BME280;21602;55.670;37.578;2023-04-10T00:56:35;100119.97;;;10.97;45.56
35489;BME280;21602;55.670;37.578;2023-04-10T00:59:01;100115.47;;;10.91;45.77
35489;BME280;21602;55.670;37.578;2023-04-10T01:01:27;100116.72;;;10.88;45.96
35489;BME280;21602;55.670;37.578;2023-04-10T01:03:56;100114.47;;;10.85;46.00
35489;BME280;21602;55.670;37.578;2023-04-10T01:09:34;100110.81;;;10.80;46.12
35489;BME280;21602;55.670;37.578;2023-04-10T01:14:51;100100.41;;;10.71;46.61
35489;BME280;21602;55.670;37.578;2023-04-10T01:17:41;100103.88;;;10.72;46.57
35489;BME280;21602;55.670;37.578;2023-04-10T01:20:12;100101.03;;;10.73;46.94
35489;BME280;21602;55.670;37.578;2023-04-10T01:22:57;100103.84;;;10.79;46.58
35489;BME280;21602;55.670;37.578;2023-04-10T01:25:50;100099.53;;;10.77;47.15
35489;BME280;21602;55.670;37.578;2023-04-10T01:31:10;100105.63;;;10.60;47.02
35489;BME280;21602;55.670;37.578;2023-04-10T01:33:50;100105.06;;;10.51;47.34
35489;BME280;21602;55.670;37.578;2023-04-10T01:36:21;100107.94;;;10.49;47.40
35489;BME280;21602;55.670;37.578;2023-04-10T01:38:49;100096.22;;;10.50;47.44
35489;BME280;21602;55.670;37.578;2023-04-10T01:41:18;100106.69;;;10.52;47.43
35489;BME280;21602;55.670;37.578;2023-04-10T01:43:48;100101.97;;;10.54;47.58
35489;BME280;21602;55.670;37.578;2023-04-10T01:46:18;100097.63;;;10.53;47.36
35489;BME280;21602;55.670;37.578;2023-04-10T01:48:46;100107.31;;;10.54;47.45
35489;BME280;21602;55.670;37.578;2023-04-10T01:51:12;100109.09;;;10.60;47.42
35489;BME280;21602;55.670;37.578;2023-04-10T01:53:42;100109.28;;;10.65;47.61
35489;BME280;21602;55.670;37.578;2023-04-10T01:56:12;100113.00;;;10.64;47.62
35489;BME280;21602;55.670;37.578;2023-04-10T01:58:44;100111.94;;;10.65;47.90
35489;BME280;21602;55.670;37.578;2023-04-10T02:01:17;100103.28;;;10.70;47.67
35489;BME280;21602;55.670;37.578;2023-04-10T02:03:43;100110.31;;;10.64;48.41
35489;BME280;21602;55.670;37.578;2023-04-10T02:06:43;100103.13;;;10.65;48.25
35489;BME280;21602;55.670;37.578;2023-04-10T02:14:19;100101.13;;;10.54;48.35
35489;BME280;21602;55.670;37.578;2023-04-10T02:17:08;100114.69;;;10.52;48.63
35489;BME280;21602;55.670;37.578;2023-04-10T02:19:36;100109.34;;;10.52;48.93
35489;BME280;21602;55.670;37.578;2023-04-10T02:22:03;100121.13;;;10.44;49.58
35489;BME280;21602;55.670;37.578;2023-04-10T02:24:32;100123.00;;;10.37;49.92
35489;BME280;21602;55.670;37.578;2023-04-10T02:26:59;100115.78;;;10.38;50.13
35489;BME280;21602;55.670;37.578;2023-04-10T02:29:25;100115.78;;;10.38;50.27
35489;BME280;21602;55.670;37.578;2023-04-10T02:31:52;100121.94;;;10.38;50.17
35489;BME280;21602;55.670;37.578;2023-04-10T02:34:18;100110.28;;;10.33;50.17
35489;BME280;21602;55.670;37.578;2023-04-10T02:36:44;100122.00;;;10.32;50.63
35489;BME280;21602;55.670;37.578;2023-04-10T02:39:11;100129.00;;;10.26;50.56
35489;BME280;21602;55.670;37.578;2023-04-10T02:41:45;100116.50;;;10.13;50.75
35489;BME280;21602;55.670;37.578;2023-04-10T02:44:12;100119.22;;;10.07;51.04
35489;BME280;21602;55.670;37.578;2023-04-10T02:46:38;100115.91;;;10.05;51.21
35489;BME280;21602;55.670;37.578;2023-04-10T02:49:07;100111.84;;;10.02;51.47
35489;BME280;21602;55.670;37.578;2023-04-10T02:51:34;100116.72;;;10.05;51.72
35489;BME280;21602;55.670;37.578;2023-04-10T02:54:01;100112.44;;;10.04;52.03
35489;BME280;21602;55.670;37.578;2023-04-10T02:56:32;100112.44;;;10.04;52.61
35489;BME280;21602;55.670;37.578;2023-04-10T02:58:59;100115.31;;;10.03;53.15
35489;BME280;21602;55.670;37.578;2023-04-10T03:01:26;100113.66;;;10.01;53.71
35489;BME280;21602;55.670;37.578;2023-04-10T03:03:52;100112.66;;;9.96;53.87
35489;BME280;21602;55.670;37.578;2023-04-10T03:06:24;100114.72;;;9.94;54.42
35489;BME280;21602;55.670;37.578;2023-04-10T03:08:55;100113.47;;;9.96;54.44
35489;BME280;21602;55.670;37.578;2023-04-10T03:11:21;100118.81;;;9.96;54.98
35489;BME280;21602;55.670;37.578;2023-04-10T03:13:47;100116.59;;;9.93;54.90
35489;BME280;21602;55.670;37.578;2023-04-10T03:16:14;100125.00;;;9.90;55.48
35489;BME280;21602;55.670;37.578;2023-04-10T03:18:42;100112.28;;;9.92;55.88
35489;BME280;21602;55.670;37.578;2023-04-10T03:21:08;100111.66;;;9.97;55.61
35489;BME280;21602;55.670;37.578;2023-04-10T03:23:33;100123.97;;;9.91;56.16
35489;BME280;21602;55.670;37.578;2023-04-10T03:26:01;100115.94;;;9.98;56.72
35489;BME280;21602;55.670;37.578;2023-04-10T03:28:29;100119.38;;;10.12;56.08
35489;BME280;21602;55.670;37.578;2023-04-10T03:30:55;100117.69;;;10.31;55.63
35489;BME280;21602;55.670;37.578;2023-04-10T03:33:21;100117.78;;;10.49;55.48
35489;BME280;21602;55.670;37.578;2023-04-10T03:35:47;100121.03;;;10.58;55.36
35489;BME280;21602;55.670;37.578;2023-04-10T03:38:13;100123.22;;;10.67;55.70
35489;BME280;21602;55.670;37.578;2023-04-10T03:40:39;100125.22;;;10.79;55.72
35489;BME280;21602;55.670;37.578;2023-04-10T03:43:08;100117.97;;;10.86;56.05
35489;BME280;21602;55.670;37.578;2023-04-10T03:45:34;100119.19;;;10.90;55.88
35489;BME280;21602;55.670;37.578;2023-04-10T03:48:01;100118.59;;;10.88;56.30
35489;BME280;21602;55.670;37.578;2023-04-10T03:50:36;100115.09;;;10.87;55.82
35489;BME280;21602;55.670;37.578;2023-04-10T03:53:02;100116.50;;;10.90;56.19
35489;BME280;21602;55.670;37.578;2023-04-10T03:55:29;100111.56;;;10.93;56.33
35489;BME280;21602;55.670;37.578;2023-04-10T03:57:55;100110.69;;;10.99;56.23
35489;BME280;21602;55.670;37.578;2023-04-10T04:00:23;100113.91;;;11.08;56.16
35489;BME280;21602;55.670;37.578;2023-04-10T04:02:57;100115.25;;;11.17;55.98
35489;BME280;21602;55.670;37.578;2023-04-10T04:05:55;100111.28;;;11.26;56.26
35489;BME280;21602;55.670;37.578;2023-04-10T04:08:32;100114.69;;;11.34;56.26
35489;BME280;21602;55.670;37.578;2023-04-10T04:11:19;100103.56;;;11.37;55.97
35489;BME280;21602;55.670;37.578;2023-04-10T04:14:05;100101.34;;;11.34;55.97
35489;BME280;21602;55.670;37.578;2023-04-10T04:16:42;100104.81;;;11.34;55.95
35489;BME280;21602;55.670;37.578;2023-04-10T04:19:22;100105.22;;;11.38;55.95
35489;BME280;21602;55.670;37.578;2023-04-10T04:22:07;100102.25;;;11.46;56.06
35489;BME280;21602;55.670;37.578;2023-04-10T04:24:51;100104.66;;;11.54;55.95
35489;BME280;21602;55.670;37.578;2023-04-10T04:27:28;100099.59;;;11.64;55.73
35489;BME280;21602;55.670;37.578;2023-04-10T04:30:26;100097.47;;;11.73;55.36
35489;BME280;21602;55.670;37.578;2023-04-10T04:33:16;100104.81;;;11.77;54.98
35489;BME280;21602;55.670;37.578;2023-04-10T04:36:02;100100.22;;;11.85;55.08
35489;BME280;21602;55.670;37.578;2023-04-10T04:38:48;100104.25;;;11.94;54.51
35489;BME280;21602;55.670;37.578;2023-04-10T04:41:44;100102.53;;;11.99;54.43
35489;BME280;21602;55.670;37.578;2023-04-10T04:44:20;100095.44;;;12.05;54.35
35489;BME280;21602;55.670;37.578;2023-04-10T04:47:21;100091.00;;;12.17;55.38
35489;BME280;21602;55.670;37.578;2023-04-10T04:50:24;100090.81;;;12.30;53.87
35489;BME280;21602;55.670;37.578;2023-04-10T04:52:52;100096.06;;;12.37;54.12
35489;BME280;21602;55.670;37.578;2023-04-10T04:55:30;100099.84;;;12.48;53.22
35489;BME280;21602;55.670;37.578;2023-04-10T04:58:02;100093.59;;;12.54;53.06
35489;BME280;21602;55.670;37.578;2023-04-10T05:00:43;100100.25;;;12.63;52.94
35489;BME280;21602;55.670;37.578;2023-04-10T05:03:27;100102.59;;;12.71;52.64
35489;BME280;21602;55.670;37.578;2023-04-10T05:06:02;100100.84;;;12.77;52.02
35489;BME280;21602;55.670;37.578;2023-04-10T05:09:00;100107.75;;;12.85;51.93
35489;BME280;21602;55.670;37.578;2023-04-10T05:11:41;100107.88;;;12.90;52.16
35489;BME280;21602;55.670;37.578;2023-04-10T05:14:26;100105.69;;;12.98;51.49
35489;BME280;21602;55.670;37.578;2023-04-10T05:17:00;100105.47;;;13.12;51.16
35489;BME280;21602;55.670;37.578;2023-04-10T05:20:01;100113.53;;;13.23;50.75
35489;BME280;21602;55.670;37.578;2023-04-10T05:22:39;100118.94;;;13.35;50.35
35489;BME280;21602;55.670;37.578;2023-04-10T05:25:34;100122.19;;;13.49;50.29
35489;BME280;21602;55.670;37.578;2023-04-10T05:28:16;100111.09;;;13.57;50.45
35489;BME280;21602;55.670;37.578;2023-04-10T05:30:57;100116.22;;;13.70;49.64
35489;BME280;21602;55.670;37.578;2023-04-10T05:33:44;100116.22;;;13.82;49.32
35489;BME280;21602;55.670;37.578;2023-04-10T05:36:35;100106.97;;;13.90;48.64
35489;BME280;21602;55.670;37.578;2023-04-10T05:39:22;100122.25;;;14.01;47.96
35489;BME280;21602;55.670;37.578;2023-04-10T05:41:59;100121.19;;;14.02;47.60
35489;BME280;21602;55.670;37.578;2023-04-10T05:44:43;100125.59;;;14.08;47.96
35489;BME280;21602;55.670;37.578;2023-04-10T05:47:35;100125.81;;;14.18;47.58
35489;BME280;21602;55.670;37.578;2023-04-10T05:50:19;100118.19;;;14.27;47.34
35489;BME280;21602;55.670;37.578;2023-04-10T05:53:09;100124.97;;;14.29;46.38
35489;BME280;21602;55.670;37.578;2023-04-10T05:56:00;100123.56;;;14.27;46.54
35489;BME280;21602;55.670;37.578;2023-04-10T05:58:54;100119.00;;;14.27;46.41
35489;BME280;21602;55.670;37.578;2023-04-10T06:01:59;100127.16;;;14.32;46.11
35489;BME280;21602;55.670;37.578;2023-04-10T06:04:28;100125.25;;;14.45;46.41
35489;BME280;21602;55.670;37.578;2023-04-10T06:07:00;100122.78;;;14.55;46.80
35489;BME280;21602;55.670;37.578;2023-04-10T06:09:26;100124.50;;;14.61;45.88
35489;BME280;21602;55.670;37.578;2023-04-10T06:11:53;100129.06;;;14.60;45.50
35489;BME280;21602;55.670;37.578;2023-04-10T06:14:22;100127.53;;;14.65;45.38
35489;BME280;21602;55.670;37.578;2023-04-10T06:16:48;100124.69;;;14.71;46.13
35489;BME280;21602;55.670;37.578;2023-04-10T06:19:14;100127.47;;;14.76;45.72
35489;BME280;21602;55.670;37.578;2023-04-10T06:21:40;100130.34;;;14.87;46.99
35489;BME280;21602;55.670;37.578;2023-04-10T06:24:06;100127.84;;;14.97;46.46
35489;BME280;21602;55.670;37.578;2023-04-10T06:26:32;100133.94;;;15.09;45.90
35489;BME280;21602;55.670;37.578;2023-04-10T06:28:59;100132.72;;;15.17;45.29
35489;BME280;21602;55.670;37.578;2023-04-10T06:31:25;100121.66;;;15.13;44.63
35489;BME280;21602;55.670;37.578;2023-04-10T06:33:50;100129.16;;;15.11;44.54
35489;BME280;21602;55.670;37.578;2023-04-10T06:36:16;100133.84;;;15.04;44.51
35489;BME280;21602;55.670;37.578;2023-04-10T06:38:47;100133.69;;;14.94;45.01
35489;BME280;21602;55.670;37.578;2023-04-10T06:41:13;100136.78;;;14.85;45.22
35489;BME280;21602;55.670;37.578;2023-04-10T06:43:39;100136.84;;;14.74;45.36
35489;BME280;21602;55.670;37.578;2023-04-10T06:46:06;100142.75;;;14.59;45.61
35489;BME280;21602;55.670;37.578;2023-04-10T06:48:32;100142.56;;;14.49;45.78
35489;BME280;21602;55.670;37.578;2023-04-10T06:50:58;100143.72;;;14.41;45.86
35489;BME280;21602;55.670;37.578;2023-04-10T06:53:27;100148.19;;;14.35;45.71
35489;BME280;21602;55.670;37.578;2023-04-10T06:55:54;100148.91;;;14.31;45.96
35489;BME280;21602;55.670;37.578;2023-04-10T06:58:20;100152.56;;;14.25;46.43
35489;BME280;21602;55.670;37.578;2023-04-10T07:00:46;100144.41;;;14.20;47.02
35489;BME280;21602;55.670;37.578;2023-04-10T07:03:11;100146.13;;;14.14;47.09
35489;BME280;21602;55.670;37.578;2023-04-10T07:05:37;100151.03;;;14.17;47.22
35489;BME280;21602;55.670;37.578;2023-04-10T07:08:03;100156.25;;;14.24;47.15
35489;BME280;21602;55.670;37.578;2023-04-10T07:10:29;100153.47;;;14.30;46.96
35489;BME280;21602;55.670;37.578;2023-04-10T07:12:55;100152.06;;;14.28;46.56
35489;BME280;21602;55.670;37.578;2023-04-10T07:15:23;100153.56;;;14.35;46.90
35489;BME280;21602;55.670;37.578;2023-04-10T07:17:50;100144.53;;;14.53;47.90
35489;BME280;21602;55.670;37.578;2023-04-10T07:20:16;100153.34;;;14.66;46.82
35489;BME280;21602;55.670;37.578;2023-04-10T07:22:42;100150.53;;;14.72;46.83
35489;BME280;21602;55.670;37.578;2023-04-10T07:25:08;100153.31;;;14.77;46.46
35489;BME280;21602;55.670;37.578;2023-04-10T07:27:34;100153.97;;;14.84;45.79
35489;BME280;21602;55.670;37.578;2023-04-10T07:30:00;100146.22;;;14.88;45.38
35489;BME280;21602;55.670;37.578;2023-04-10T07:32:26;100151.34;;;14.90;45.47
35489;BME280;21602;55.670;37.578;2023-04-10T07:34:53;100142.75;;;14.88;45.51
35489;BME280;21602;55.670;37.578;2023-04-10T07:37:19;100150.81;;;14.88;45.51
35489;BME280;21602;55.670;37.578;2023-04-10T07:39:45;100150.28;;;14.91;45.03
35489;BME280;21602;55.670;37.578;2023-04-10T07:42:11;100147.94;;;14.94;44.99
35489;BME280;21602;55.670;37.578;2023-04-10T07:44:37;100152.59;;;14.99;45.75
35489;BME280;21602;55.670;37.578;2023-04-10T07:47:06;100147.22;;;14.99;44.85
35489;BME280;21602;55.670;37.578;2023-04-10T07:49:32;100150.50;;;15.01;44.88
35489;BME280;21602;55.670;37.578;2023-04-10T07:51:58;100145.69;;;15.03;44.80
35489;BME280;21602;55.670;37.578;2023-04-10T07:54:24;100142.75;;;15.04;44.26
35489;BME280;21602;55.670;37.578;2023-04-10T07:56:51;100145.13;;;15.01;44.39
35489;BME280;21602;55.670;37.578;2023-04-10T07:59:17;100145.03;;;14.96;44.20
35489;BME280;21602;55.670;37.578;2023-04-10T08:01:43;100147.31;;;14.87;44.19
35489;BME280;21602;55.670;37.578;2023-04-10T08:04:09;100140.53;;;14.84;44.67
35489;BME280;21602;55.670;37.578;2023-04-10T08:06:35;100146.22;;;14.88;44.77
35489;BME280;21602;55.670;37.578;2023-04-10T08:09:01;100146.78;;;14.90;44.51
35489;BME280;21602;55.670;37.578;2023-04-10T08:11:32;100138.81;;;14.95;44.79
35489;BME280;21602;55.670;37.578;2023-04-10T08:13:59;100143.16;;;14.96;44.86
35489;BME280;21602;55.670;37.578;2023-04-10T08:16:32;100141.03;;;14.98;44.87
35489;BME280;21602;55.670;37.578;2023-04-10T08:18:59;100136.84;;;14.91;44.92
35489;BME280;21602;55.670;37.578;2023-04-10T08:21:26;100144.91;;;14.91;45.24
35489;BME280;21602;55.670;37.578;2023-04-10T08:23:54;100144.03;;;14.85;45.35
35489;BME280;21602;55.670;37.578;2023-04-10T08:26:21;100143.28;;;14.90;45.18
35489;BME280;21602;55.670;37.578;2023-04-10T08:28:48;100142.25;;;15.07;44.97
35489;BME280;21602;55.670;37.578;2023-04-10T08:31:16;100136.00;;;15.35;45.43
35489;BME280;21602;55.670;37.578;2023-04-10T08:33:42;100138.25;;;15.60;44.63
35489;BME280;21602;55.670;37.578;2023-04-10T08:36:08;100130.31;;;15.87;44.32
35489;BME280;21602;55.670;37.578;2023-04-10T08:38:35;100133.03;;;16.09;43.95
35489;BME280;21602;55.670;37.578;2023-04-10T08:41:01;100132.88;;;16.21;43.47
35489;BME280;21602;55.670;37.578;2023-04-10T08:43:30;100129.13;;;16.22;43.00
35489;BME280;21602;55.670;37.578;2023-04-10T08:45:57;100126.38;;;16.17;43.62
35489;BME280;21602;55.670;37.578;2023-04-10T08:51:00;100125.47;;;15.90;42.53
35489;BME280;21602;55.670;37.578;2023-04-10T08:53:30;100120.63;;;15.70;42.60
35489;BME280;21602;55.670;37.578;2023-04-10T08:56:11;100124.41;;;15.69;42.49
35489;BME280;21602;55.670;37.578;2023-04-10T08:58:40;100117.94;;;15.70;42.84
35489;BME280;21602;55.670;37.578;2023-04-10T09:01:06;100130.53;;;15.64;42.92
35489;BME280;21602;55.670;37.578;2023-04-10T09:03:32;100127.16;;;15.57;43.99
35489;BME280;21602;55.670;37.578;2023-04-10T09:06:02;100115.56;;;15.73;43.45
35489;BME280;21602;55.670;37.578;2023-04-10T09:08:30;100122.91;;;15.78;42.74
35489;BME280;21602;55.670;37.578;2023-04-10T09:10:56;100116.19;;;15.80;42.67
35489;BME280;21602;55.670;37.578;2023-04-10T09:13:40;100121.66;;;15.85;42.06
35489;BME280;21602;55.670;37.578;2023-04-10T09:16:07;100118.53;;;15.72;42.77
35489;BME280;21602;55.670;37.578;2023-04-10T09:21:11;100121.03;;;15.61;42.70
35489;BME280;21602;55.670;37.578;2023-04-10T09:23:37;100123.16;;;15.76;42.77
35489;BME280;21602;55.670;37.578;2023-04-10T09:26:29;100110.56;;;16.04;43.06
35489;BME280;21602;55.670;37.578;2023-04-10T09:28:57;100116.22;;;16.24;42.42
35489;BME280;21602;55.670;37.578;2023-04-10T09:31:36;100109.88;;;16.35;42.01
35489;BME280;21602;55.670;37.578;2023-04-10T09:34:20;100106.25;;;16.52;41.43
35489;BME280;21602;55.670;37.578;2023-04-10T09:36:52;100110.03;;;16.24;41.16
35489;BME280;21602;55.670;37.578;2023-04-10T09:39:19;100110.25;;;16.22;41.30
35489;BME280;21602;55.670;37.578;2023-04-10T09:41:50;100106.69;;;16.38;41.33
35489;BME280;21602;55.670;37.578;2023-04-10T09:44:28;100108.19;;;16.56;41.54
35489;BME280;21602;55.670;37.578;2023-04-10T09:46:55;100095.59;;;16.62;41.37
35489;BME280;21602;55.670;37.578;2023-04-10T09:49:21;100099.94;;;16.63;41.83
35489;BME280;21602;55.670;37.578;2023-04-10T09:51:48;100101.44;;;16.54;41.55
35489;BME280;21602;55.670;37.578;2023-04-10T09:54:14;100097.03;;;16.43;41.54
35489;BME280;21602;55.670;37.578;2023-04-10T09:56:44;100100.16;;;16.34;41.63
35489;BME280;21602;55.670;37.578;2023-04-10T09:59:12;100098.56;;;16.33;41.45
35489;BME280;21602;55.670;37.578;2023-04-10T10:01:39;100105.25;;;16.31;41.45
35489;BME280;21602;55.670;37.578;2023-04-10T10:04:06;100101.41;;;16.27;41.45
35489;BME280;21602;55.670;37.578;2023-04-10T10:06:34;100097.38;;;16.24;41.71
35489;BME280;21602;55.670;37.578;2023-04-10T10:09:03;100101.06;;;16.18;41.43
35489;BME280;21602;55.670;37.578;2023-04-10T10:11:34;100100.00;;;16.19;41.40
35489;BME280;21602;55.670;37.578;2023-04-10T10:14:12;100099.09;;;16.13;41.20
35489;BME280;21602;55.670;37.578;2023-04-10T10:16:46;100110.91;;;16.07;41.45
35489;BME280;21602;55.670;37.578;2023-04-10T10:19:22;100106.91;;;16.10;41.37
35489;BME280;21602;55.670;37.578;2023-04-10T10:21:59;100102.44;;;15.99;41.61
35489;BME280;21602;55.670;37.578;2023-04-10T10:24:26;100097.56;;;15.96;42.44
35489;BME280;21602;55.670;37.578;2023-04-10T10:26:58;100104.69;;;16.07;41.92
35489;BME280;21602;55.670;37.578;2023-04-10T10:29:31;100101.63;;;15.98;42.25
35489;BME280;21602;55.670;37.578;2023-04-10T10:32:23;100091.13;;;15.97;42.55
35489;BME280;21602;55.670;37.578;2023-04-10T10:34:59;100086.00;;;15.95;42.12
35489;BME280;21602;55.670;37.578;2023-04-10T10:37:28;100090.47;;;15.90;42.27
35489;BME280;21602;55.670;37.578;2023-04-10T10:40:19;100082.34;;;15.84;42.36
35489;BME280;21602;55.670;37.578;2023-04-10T10:45:20;100078.31;;;15.65;42.46
35489;BME280;21602;55.670;37.578;2023-04-10T10:47:52;100079.22;;;15.54;42.31
35489;BME280;21602;55.670;37.578;2023-04-10T10:50:18;100079.44;;;15.52;42.27
35489;BME280;21602;55.670;37.578;2023-04-10T10:57:48;100076.94;;;15.46;43.06
35489;BME280;21602;55.670;37.578;2023-04-10T11:00:19;100075.47;;;15.55;42.53
35489;BME280;21602;55.670;37.578;2023-04-10T11:05:52;100076.53;;;15.54;42.38
35489;BME280;21602;55.670;37.578;2023-04-10T11:11:06;100072.91;;;15.43;42.14
35489;BME280;21602;55.670;37.578;2023-04-10T11:13:33;100079.72;;;15.51;42.19
35489;BME280;21602;55.670;37.578;2023-04-10T11:16:01;100075.13;;;15.51;42.13
35489;BME280;21602;55.670;37.578;2023-04-10T11:21:20;100071.69;;;15.56;42.26
35489;BME280;21602;55.670;37.578;2023-04-10T11:31:33;100070.69;;;15.79;41.71
35489;BME280;21602;55.670;37.578;2023-04-10T11:34:06;100071.44;;;15.96;41.37
35489;BME280;21602;55.670;37.578;2023-04-10T11:36:40;100066.59;;;16.20;41.09
35489;BME280;21602;55.670;37.578;2023-04-10T11:39:10;100066.50;;;16.37;40.70
35489;BME280;21602;55.670;37.578;2023-04-10T11:41:50;100057.97;;;16.45;40.81
35489;BME280;21602;55.670;37.578;2023-04-10T11:44:27;100056.69;;;16.53;40.81
35489;BME280;21602;55.670;37.578;2023-04-10T11:46:53;100062.94;;;16.58;40.70
35489;BME280;21602;55.670;37.578;2023-04-10T11:49:39;100064.25;;;16.56;40.35
35489;BME280;21602;55.670;37.578;2023-04-10T11:52:06;100064.88;;;16.36;40.57
35489;BME280;21602;55.670;37.578;2023-04-10T11:54:32;100061.97;;;16.16;40.74
35489;BME280;21602;55.670;37.578;2023-04-10T11:56:59;100054.22;;;15.97;40.96
35489;BME280;21602;55.670;37.578;2023-04-10T11:59:25;100061.06;;;15.83;40.93
35489;BME280;21602;55.670;37.578;2023-04-10T12:01:53;100059.97;;;15.62;41.38
35489;BME280;21602;55.670;37.578;2023-04-10T12:04:27;100056.31;;;15.51;41.33
35489;BME280;21602;55.670;37.578;2023-04-10T12:06:55;100057.78;;;15.42;41.51
35489;BME280;21602;55.670;37.578;2023-04-10T12:09:24;100049.84;;;15.30;41.69
35489;BME280;21602;55.670;37.578;2023-04-10T12:11:55;100048.69;;;15.26;41.76
35489;BME280;21602;55.670;37.578;2023-04-10T12:17:01;100048.63;;;15.21;42.08
35489;BME280;21602;55.670;37.578;2023-04-10T12:19:29;100041.09;;;15.23;42.21
35489;BME280;21602;55.670;37.578;2023-04-10T12:21:57;100040.88;;;15.25;42.20
35489;BME280;21602;55.670;37.578;2023-04-10T12:27:28;100042.84;;;15.13;42.28
35489;BME280;21602;55.670;37.578;2023-04-10T12:29:56;100045.94;;;15.04;42.64
35489;BME280;21602;55.670;37.578;2023-04-10T12:32:23;100038.88;;;14.98;42.46
35489;BME280;21602;55.670;37.578;2023-04-10T12:37:16;100045.06;;;14.82;42.72
35489;BME280;21602;55.670;37.578;2023-04-10T12:39:43;100038.78;;;14.76;43.23
35489;BME280;21602;55.670;37.578;2023-04-10T12:42:15;100047.00;;;14.70;43.83
35489;BME280;21602;55.670;37.578;2023-04-10T12:44:58;100045.84;;;14.66;43.90
35489;BME280;21602;55.670;37.578;2023-04-10T12:47:27;100046.13;;;14.64;43.87
35489;BME280;21602;55.670;37.578;2023-04-10T12:50:07;100051.56;;;14.69;43.93
35489;BME280;21602;55.670;37.578;2023-04-10T12:52:37;100041.22;;;14.61;45.46
35489;BME280;21602;55.670;37.578;2023-04-10T12:55:19;100042.94;;;14.67;48.79
35489;BME280;21602;55.670;37.578;2023-04-10T12:57:49;100044.00;;;14.38;47.83
35489;BME280;21602;55.670;37.578;2023-04-10T13:00:17;100059.94;;;14.27;47.54
35489;BME280;21602;55.670;37.578;2023-04-10T13:02:43;100036.25;;;13.96;48.50
35489;BME280;21602;55.670;37.578;2023-04-10T13:05:10;100049.34;;;13.80;48.48
35489;BME280;21602;55.670;37.578;2023-04-10T13:07:36;100047.16;;;13.77;48.86
35489;BME280;21602;55.670;37.578;2023-04-10T13:10:03;100043.88;;;13.75;49.60
35489;BME280;21602;55.670;37.578;2023-04-10T13:12:30;100039.72;;;13.68;50.34
35489;BME280;21602;55.670;37.578;2023-04-10T13:14:56;100054.50;;;13.70;50.05
35489;BME280;21602;55.670;37.578;2023-04-10T13:17:23;100054.41;;;13.65;50.28
35489;BME280;21602;55.670;37.578;2023-04-10T13:19:49;100050.91;;;13.65;50.27
35489;BME280;21602;55.670;37.578;2023-04-10T13:22:15;100052.06;;;13.69;50.56
35489;BME280;21602;55.670;37.578;2023-04-10T13:24:42;100053.69;;;13.70;49.94
35489;BME280;21602;55.670;37.578;2023-04-10T13:27:09;100056.94;;;13.72;51.19
35489;BME280;21602;55.670;37.578;2023-04-10T13:29:36;100052.63;;;13.82;51.73
35489;BME280;21602;55.670;37.578;2023-04-10T13:32:02;100044.47;;;13.77;52.43
35489;BME280;21602;55.670;37.578;2023-04-10T13:34:33;100059.22;;;13.63;54.01
35489;BME280;21602;55.670;37.578;2023-04-10T13:36:59;100059.91;;;13.58;54.26
35489;BME280;21602;55.670;37.578;2023-04-10T13:39:29;100061.44;;;13.43;54.40
35489;BME280;21602;55.670;37.578;2023-04-10T13:41:57;100067.06;;;13.29;55.51
35489;BME280;21602;55.670;37.578;2023-04-10T13:44:23;100059.31;;;13.21;55.63
35489;BME280;21602;55.670;37.578;2023-04-10T13:46:50;100058.72;;;13.19;56.13
35489;BME280;21602;55.670;37.578;2023-04-10T13:49:17;100051.06;;;13.11;56.35
35489;BME280;21602;55.670;37.578;2023-04-10T13:51:45;100046.25;;;13.13;57.63